sensor_id;sensor_type;location;lat;lon;timestamp;P1;durP1;ratioP1;P2;durP2;ratioP2
50803;SDS011;37205;51.434;6.756;2023-12-20T00:02:15;23.70;;;13.60;;
50803;SDS011;37205;51.434;6.756;2023-12-20T00:04:41;21.58;;;12.00;;
50803;SDS011;37205;51.434;6.756;2023-12-20T00:07:07;22.05;;;12.68;;
50803;SDS011;37205;51.434;6.756;2023-12-20T00:09:32;23.50;;;13.40;;
50803;SDS011;37205;51.434;6.756;2023-12-20T00:11:58;19.30;;;11.23;;
50803;SDS011;37205;51.434;6.756;2023-12-20T00:14:23;27.45;;;16.15;;
50803;SDS011;37205;51.434;6.756;2023-12-20T00:16:49;25.73;;;15.23;;
50803;SDS011;37205;51.434;6.756;2023-12-20T00:19:14;31.58;;;17.05;;
50803;SDS011;37205;51.434;6.756;2023-12-20T00:21:40;23.67;;;12.27;;
50803;SDS011;37205;51.434;6.756;2023-12-20T00:24:05;28.90;;;17.45;;
50803;SDS011;37205;51.434;6.756;2023-12-20T00:26:31;26.77;;;14.63;;
50803;SDS011;37205;51.434;6.756;2023-12-20T00:28:57;26.33;;;14.65;;
50803;SDS011;37205;51.434;6.756;2023-12-20T00:31:22;24.77;;;12.38;;
50803;SDS011;37205;51.434;6.756;2023-12-20T00:33:48;22.52;;;12.27;;
50803;SDS011;37205;51.434;6.756;2023-12-20T00:36:13;21.50;;;13.18;;
50803;SDS011;37205;51.434;6.756;2023-12-20T00:38:39;19.30;;;8.77;;
50803;SDS011;37205;51.434;6.756;2023-12-20T00:41:04;21.08;;;12.05;;
50803;SDS011;37205;51.434;6.756;2023-12-20T00:43:30;22.13;;;10.02;;
50803;SDS011;37205;51.434;6.756;2023-12-20T00:45:55;19.20;;;11.32;;
50803;SDS011;37205;51.434;6.756;2023-12-20T00:48:21;21.60;;;11.50;;
50803;SDS011;37205;51.434;6.756;2023-12-20T00:50:46;21.17;;;11.38;;
50803;SDS011;37205;51.434;6.756;2023-12-20T00:53:15;22.40;;;12.25;;
50803;SDS011;37205;51.434;6.756;2023-12-20T00:55:40;21.13;;;10.80;;
50803;SDS011;37205;51.434;6.756;2023-12-20T00:58:06;22.27;;;11.65;;
50803;SDS011;37205;51.434;6.756;2023-12-20T01:00:31;22.95;;;11.57;;
50803;SDS011;37205;51.434;6.756;2023-12-20T01:03:04;20.08;;;11.68;;
50803;SDS011;37205;51.434;6.756;2023-12-20T01:05:30;21.77;;;12.65;;
50803;SDS011;37205;51.434;6.756;2023-12-20T01:07:55;25.65;;;12.55;;
50803;SDS011;37205;51.434;6.756;2023-12-20T01:10:21;24.33;;;13.02;;
50803;SDS011;37205;51.434;6.756;2023-12-20T01:12:47;25.67;;;12.88;;
50803;SDS011;37205;51.434;6.756;2023-12-20T01:15:13;21.88;;;13.02;;
50803;SDS011;37205;51.434;6.756;2023-12-20T01:17:38;21.35;;;12.20;;
50803;SDS011;37205;51.434;6.756;2023-12-20T01:20:04;26.98;;;15.90;;
50803;SDS011;37205;51.434;6.756;2023-12-20T01:22:31;19.48;;;11.88;;
50803;SDS011;37205;51.434;6.756;2023-12-20T01:24:56;24.73;;;14.50;;
50803;SDS011;37205;51.434;6.756;2023-12-20T01:27:21;25.20;;;12.18;;
50803;SDS011;37205;51.434;6.756;2023-12-20T01:29:47;19.88;;;11.15;;
50803;SDS011;37205;51.434;6.756;2023-12-20T01:32:12;20.48;;;10.10;;
50803;SDS011;37205;51.434;6.756;2023-12-20T01:34:38;19.77;;;8.95;;
50803;SDS011;37205;51.434;6.756;2023-12-20T01:37:03;25.10;;;12.52;;
50803;SDS011;37205;51.434;6.756;2023-12-20T01:39:29;11.20;;;6.70;;
50803;SDS011;37205;51.434;6.756;2023-12-20T01:41:55;19.75;;;10.55;;
50803;SDS011;37205;51.434;6.756;2023-12-20T01:44:20;20.05;;;10.25;;
50803;SDS011;37205;51.434;6.756;2023-12-20T01:46:46;17.58;;;10.77;;
50803;SDS011;37205;51.434;6.756;2023-12-20T01:49:12;18.05;;;9.32;;
50803;SDS011;37205;51.434;6.756;2023-12-20T01:51:38;17.35;;;9.48;;
50803;SDS011;37205;51.434;6.756;2023-12-20T01:54:04;22.95;;;10.18;;
50803;SDS011;37205;51.434;6.756;2023-12-20T01:56:30;19.05;;;10.60;;
50803;SDS011;37205;51.434;6.756;2023-12-20T01:58:56;19.83;;;10.43;;
50803;SDS011;37205;51.434;6.756;2023-12-20T02:01:23;23.73;;;10.60;;
50803;SDS011;37205;51.434;6.756;2023-12-20T02:03:49;21.00;;;11.25;;
50803;SDS011;37205;51.434;6.756;2023-12-20T02:06:23;21.98;;;11.10;;
50803;SDS011;37205;51.434;6.756;2023-12-20T02:08:50;18.88;;;10.95;;
50803;SDS011;37205;51.434;6.756;2023-12-20T02:11:16;22.08;;;11.07;;
50803;SDS011;37205;51.434;6.756;2023-12-20T02:13:42;24.23;;;11.40;;
50803;SDS011;37205;51.434;6.756;2023-12-20T02:16:07;23.85;;;11.63;;
50803;SDS011;37205;51.434;6.756;2023-12-20T02:18:33;22.92;;;11.18;;
50803;SDS011;37205;51.434;6.756;2023-12-20T02:20:58;19.77;;;10.90;;
50803;SDS011;37205;51.434;6.756;2023-12-20T02:23:24;21.88;;;11.25;;
50803;SDS011;37205;51.434;6.756;2023-12-20T02:25:50;21.58;;;11.23;;
50803;SDS011;37205;51.434;6.756;2023-12-20T02:28:16;27.75;;;11.35;;
50803;SDS011;37205;51.434;6.756;2023-12-20T02:30:41;23.98;;;10.60;;
50803;SDS011;37205;51.434;6.756;2023-12-20T02:33:07;21.48;;;10.38;;
50803;SDS011;37205;51.434;6.756;2023-12-20T02:35:35;22.95;;;9.70;;
50803;SDS011;37205;51.434;6.756;2023-12-20T02:38:01;27.73;;;10.15;;
50803;SDS011;37205;51.434;6.756;2023-12-20T02:40:26;20.92;;;9.77;;
50803;SDS011;37205;51.434;6.756;2023-12-20T02:42:52;21.80;;;9.27;;
50803;SDS011;37205;51.434;6.756;2023-12-20T02:45:17;24.10;;;10.43;;
50803;SDS011;37205;51.434;6.756;2023-12-20T02:47:43;21.60;;;9.70;;
50803;SDS011;37205;51.434;6.756;2023-12-20T02:50:08;20.80;;;9.15;;
50803;SDS011;37205;51.434;6.756;2023-12-20T02:52:34;26.27;;;10.57;;
50803;SDS011;37205;51.434;6.756;2023-12-20T02:54:59;21.85;;;9.15;;
50803;SDS011;37205;51.434;6.756;2023-12-20T02:57:25;21.38;;;8.55;;
50803;SDS011;37205;51.434;6.756;2023-12-20T02:59:50;23.08;;;8.57;;
50803;SDS011;37205;51.434;6.756;2023-12-20T03:02:16;32.60;;;8.77;;
50803;SDS011;37205;51.434;6.756;2023-12-20T03:04:44;20.60;;;7.57;;
50803;SDS011;37205;51.434;6.756;2023-12-20T03:07:10;24.80;;;7.90;;
50803;SDS011;37205;51.434;6.756;2023-12-20T03:09:37;21.08;;;7.18;;
50803;SDS011;37205;51.434;6.756;2023-12-20T03:12:02;21.50;;;7.57;;
50803;SDS011;37205;51.434;6.756;2023-12-20T03:14:28;25.38;;;8.10;;
50803;SDS011;37205;51.434;6.756;2023-12-20T03:16:54;17.63;;;6.32;;
50803;SDS011;37205;51.434;6.756;2023-12-20T03:19:19;19.10;;;6.65;;
50803;SDS011;37205;51.434;6.756;2023-12-20T03:21:45;21.25;;;6.20;;
50803;SDS011;37205;51.434;6.756;2023-12-20T03:24:11;16.67;;;5.57;;
50803;SDS011;37205;51.434;6.756;2023-12-20T03:26:36;19.05;;;5.97;;
50803;SDS011;37205;51.434;6.756;2023-12-20T03:29:02;15.45;;;4.90;;
50803;SDS011;37205;51.434;6.756;2023-12-20T03:31:27;17.60;;;5.80;;
50803;SDS011;37205;51.434;6.756;2023-12-20T03:33:53;19.63;;;5.22;;
50803;SDS011;37205;51.434;6.756;2023-12-20T03:36:19;13.60;;;4.85;;
50803;SDS011;37205;51.434;6.756;2023-12-20T03:38:45;18.10;;;4.72;;
50803;SDS011;37205;51.434;6.756;2023-12-20T03:41:10;13.73;;;4.55;;
50803;SDS011;37205;51.434;6.756;2023-12-20T03:43:36;15.48;;;4.90;;
50803;SDS011;37205;51.434;6.756;2023-12-20T03:46:02;20.00;;;4.75;;
50803;SDS011;37205;51.434;6.756;2023-12-20T03:48:28;15.45;;;4.13;;
50803;SDS011;37205;51.434;6.756;2023-12-20T03:50:54;16.25;;;4.85;;
50803;SDS011;37205;51.434;6.756;2023-12-20T03:53:21;22.40;;;4.35;;
50803;SDS011;37205;51.434;6.756;2023-12-20T03:55:47;15.82;;;4.40;;
50803;SDS011;37205;51.434;6.756;2023-12-20T03:58:13;16.80;;;4.50;;
50803;SDS011;37205;51.434;6.756;2023-12-20T04:00:38;21.33;;;4.53;;
50803;SDS011;37205;51.434;6.756;2023-12-20T04:05:51;14.77;;;4.60;;
50803;SDS011;37205;51.434;6.756;2023-12-20T04:08:17;17.67;;;4.25;;
50803;SDS011;37205;51.434;6.756;2023-12-20T04:10:42;17.02;;;4.93;;
50803;SDS011;37205;51.434;6.756;2023-12-20T04:13:08;16.38;;;4.20;;
50803;SDS011;37205;51.434;6.756;2023-12-20T04:15:33;18.20;;;4.90;;
50803;SDS011;37205;51.434;6.756;2023-12-20T04:17:59;15.93;;;5.15;;
50803;SDS011;37205;51.434;6.756;2023-12-20T04:20:25;11.35;;;3.90;;
50803;SDS011;37205;51.434;6.756;2023-12-20T04:22:50;13.23;;;4.18;;
50803;SDS011;37205;51.434;6.756;2023-12-20T04:25:16;21.13;;;5.03;;
50803;SDS011;37205;51.434;6.756;2023-12-20T04:27:41;16.50;;;4.63;;
50803;SDS011;37205;51.434;6.756;2023-12-20T04:30:07;18.60;;;4.22;;
50803;SDS011;37205;51.434;6.756;2023-12-20T04:32:33;18.63;;;4.95;;
50803;SDS011;37205;51.434;6.756;2023-12-20T04:34:58;23.52;;;4.88;;
50803;SDS011;37205;51.434;6.756;2023-12-20T04:37:24;17.48;;;5.95;;
50803;SDS011;37205;51.434;6.756;2023-12-20T04:39:49;21.52;;;5.95;;
50803;SDS011;37205;51.434;6.756;2023-12-20T04:42:15;20.58;;;5.40;;
50803;SDS011;37205;51.434;6.756;2023-12-20T04:44:41;20.50;;;5.57;;
50803;SDS011;37205;51.434;6.756;2023-12-20T04:47:08;15.48;;;5.72;;
50803;SDS011;37205;51.434;6.756;2023-12-20T04:49:34;15.15;;;5.95;;
50803;SDS011;37205;51.434;6.756;2023-12-20T04:51:59;23.85;;;7.30;;
50803;SDS011;37205;51.434;6.756;2023-12-20T04:54:25;20.02;;;6.13;;
50803;SDS011;37205;51.434;6.756;2023-12-20T04:56:50;25.48;;;6.88;;
50803;SDS011;37205;51.434;6.756;2023-12-20T04:59:16;21.30;;;7.72;;
50803;SDS011;37205;51.434;6.756;2023-12-20T05:01:41;22.02;;;7.15;;
50803;SDS011;37205;51.434;6.756;2023-12-20T05:04:07;20.55;;;7.28;;
50803;SDS011;37205;51.434;6.756;2023-12-20T05:06:32;21.02;;;7.43;;
50803;SDS011;37205;51.434;6.756;2023-12-20T05:08:58;21.13;;;7.80;;
50803;SDS011;37205;51.434;6.756;2023-12-20T05:11:24;20.70;;;7.68;;
50803;SDS011;37205;51.434;6.756;2023-12-20T05:13:49;22.67;;;9.20;;
50803;SDS011;37205;51.434;6.756;2023-12-20T05:16:17;23.48;;;7.00;;
50803;SDS011;37205;51.434;6.756;2023-12-20T05:21:35;24.65;;;8.02;;
50803;SDS011;37205;51.434;6.756;2023-12-20T05:24:38;26.80;;;8.98;;
50803;SDS011;37205;51.434;6.756;2023-12-20T05:27:36;26.92;;;9.48;;
50803;SDS011;37205;51.434;6.756;2023-12-20T05:30:10;28.45;;;8.75;;
50803;SDS011;37205;51.434;6.756;2023-12-20T05:36:21;18.77;;;7.78;;
50803;SDS011;37205;51.434;6.756;2023-12-20T05:39:16;19.45;;;7.50;;
50803;SDS011;37205;51.434;6.756;2023-12-20T05:42:00;23.92;;;8.00;;
50803;SDS011;37205;51.434;6.756;2023-12-20T05:44:28;22.75;;;7.90;;
50803;SDS011;37205;51.434;6.756;2023-12-20T05:46:56;21.25;;;7.68;;
50803;SDS011;37205;51.434;6.756;2023-12-20T05:49:40;22.02;;;7.95;;
50803;SDS011;37205;51.434;6.756;2023-12-20T05:52:09;26.35;;;8.30;;
50803;SDS011;37205;51.434;6.756;2023-12-20T05:54:38;25.85;;;8.75;;
50803;SDS011;37205;51.434;6.756;2023-12-20T05:57:30;29.40;;;8.77;;
50803;SDS011;37205;51.434;6.756;2023-12-20T06:00:12;19.60;;;7.72;;
50803;SDS011;37205;51.434;6.756;2023-12-20T06:02:47;24.75;;;7.35;;
50803;SDS011;37205;51.434;6.756;2023-12-20T06:05:43;24.15;;;6.95;;
50803;SDS011;37205;51.434;6.756;2023-12-20T06:08:18;23.77;;;8.40;;
50803;SDS011;37205;51.434;6.756;2023-12-20T06:10:44;29.40;;;8.23;;
50803;SDS011;37205;51.434;6.756;2023-12-20T06:13:09;23.33;;;8.27;;
50803;SDS011;37205;51.434;6.756;2023-12-20T06:15:36;17.77;;;7.85;;
50803;SDS011;37205;51.434;6.756;2023-12-20T06:18:02;21.95;;;7.88;;
50803;SDS011;37205;51.434;6.756;2023-12-20T06:20:28;23.85;;;8.50;;
50803;SDS011;37205;51.434;6.756;2023-12-20T06:22:53;30.77;;;8.13;;
50803;SDS011;37205;51.434;6.756;2023-12-20T06:25:19;20.60;;;8.05;;
50803;SDS011;37205;51.434;6.756;2023-12-20T06:27:44;27.27;;;7.55;;
50803;SDS011;37205;51.434;6.756;2023-12-20T06:30:10;23.35;;;8.15;;
50803;SDS011;37205;51.434;6.756;2023-12-20T06:32:36;23.60;;;8.88;;
50803;SDS011;37205;51.434;6.756;2023-12-20T06:35:02;26.27;;;8.50;;
50803;SDS011;37205;51.434;6.756;2023-12-20T06:37:29;27.08;;;8.85;;
50803;SDS011;37205;51.434;6.756;2023-12-20T06:39:55;25.88;;;7.82;;
50803;SDS011;37205;51.434;6.756;2023-12-20T06:42:21;21.13;;;7.35;;
50803;SDS011;37205;51.434;6.756;2023-12-20T06:44:47;20.80;;;7.30;;
50803;SDS011;37205;51.434;6.756;2023-12-20T06:47:13;23.60;;;7.65;;
50803;SDS011;37205;51.434;6.756;2023-12-20T06:49:39;22.15;;;7.22;;
50803;SDS011;37205;51.434;6.756;2023-12-20T06:52:05;20.45;;;7.10;;
50803;SDS011;37205;51.434;6.756;2023-12-20T06:54:31;22.05;;;6.88;;
50803;SDS011;37205;51.434;6.756;2023-12-20T06:56:56;26.77;;;7.70;;
50803;SDS011;37205;51.434;6.756;2023-12-20T06:59:22;18.80;;;6.95;;
50803;SDS011;37205;51.434;6.756;2023-12-20T07:01:50;17.15;;;6.05;;
50803;SDS011;37205;51.434;6.756;2023-12-20T07:04:16;19.30;;;6.60;;
50803;SDS011;37205;51.434;6.756;2023-12-20T07:06:45;19.92;;;6.18;;
50803;SDS011;37205;51.434;6.756;2023-12-20T07:09:10;22.00;;;7.45;;
50803;SDS011;37205;51.434;6.756;2023-12-20T07:11:38;22.80;;;6.68;;
50803;SDS011;37205;51.434;6.756;2023-12-20T07:14:03;20.85;;;6.20;;
50803;SDS011;37205;51.434;6.756;2023-12-20T07:16:29;29.77;;;7.78;;
50803;SDS011;37205;51.434;6.756;2023-12-20T07:18:54;20.75;;;7.38;;
50803;SDS011;37205;51.434;6.756;2023-12-20T07:21:21;22.10;;;6.85;;
50803;SDS011;37205;51.434;6.756;2023-12-20T07:23:46;24.00;;;7.28;;
50803;SDS011;37205;51.434;6.756;2023-12-20T07:26:12;17.52;;;6.55;;
50803;SDS011;37205;51.434;6.756;2023-12-20T07:28:38;23.85;;;6.93;;
50803;SDS011;37205;51.434;6.756;2023-12-20T07:31:04;22.02;;;7.28;;
50803;SDS011;37205;51.434;6.756;2023-12-20T07:33:29;21.38;;;7.50;;
50803;SDS011;37205;51.434;6.756;2023-12-20T07:35:55;19.27;;;6.43;;
50803;SDS011;37205;51.434;6.756;2023-12-20T07:38:23;21.60;;;7.47;;
50803;SDS011;37205;51.434;6.756;2023-12-20T07:40:49;19.92;;;7.20;;
50803;SDS011;37205;51.434;6.756;2023-12-20T07:43:14;22.40;;;6.35;;
50803;SDS011;37205;51.434;6.756;2023-12-20T07:45:40;17.50;;;6.65;;
50803;SDS011;37205;51.434;6.756;2023-12-20T07:48:06;25.08;;;6.18;;
50803;SDS011;37205;51.434;6.756;2023-12-20T07:50:32;20.73;;;6.80;;
50803;SDS011;37205;51.434;6.756;2023-12-20T07:52:58;22.42;;;6.97;;
50803;SDS011;37205;51.434;6.756;2023-12-20T07:55:25;19.73;;;6.85;;
50803;SDS011;37205;51.434;6.756;2023-12-20T07:57:51;20.17;;;6.80;;
50803;SDS011;37205;51.434;6.756;2023-12-20T08:00:17;24.48;;;6.72;;
50803;SDS011;37205;51.434;6.756;2023-12-20T08:02:45;20.73;;;6.93;;
50803;SDS011;37205;51.434;6.756;2023-12-20T08:05:11;19.88;;;7.38;;
50803;SDS011;37205;51.434;6.756;2023-12-20T08:07:36;27.70;;;8.27;;
50803;SDS011;37205;51.434;6.756;2023-12-20T08:10:02;22.38;;;8.07;;
50803;SDS011;37205;51.434;6.756;2023-12-20T08:12:27;19.85;;;7.88;;
50803;SDS011;37205;51.434;6.756;2023-12-20T08:14:53;23.17;;;7.70;;
50803;SDS011;37205;51.434;6.756;2023-12-20T08:17:19;23.45;;;7.88;;
50803;SDS011;37205;51.434;6.756;2023-12-20T08:19:45;15.00;;;7.78;;
50803;SDS011;37205;51.434;6.756;2023-12-20T08:22:11;27.63;;;9.23;;
50803;SDS011;37205;51.434;6.756;2023-12-20T08:24:37;24.33;;;8.30;;
50803;SDS011;37205;51.434;6.756;2023-12-20T08:27:03;20.35;;;7.45;;
50803;SDS011;37205;51.434;6.756;2023-12-20T08:29:29;20.52;;;8.02;;
50803;SDS011;37205;51.434;6.756;2023-12-20T08:31:55;24.65;;;7.95;;
50803;SDS011;37205;51.434;6.756;2023-12-20T08:34:21;20.30;;;7.50;;
50803;SDS011;37205;51.434;6.756;2023-12-20T08:36:47;21.35;;;7.60;;
50803;SDS011;37205;51.434;6.756;2023-12-20T08:39:12;16.63;;;6.40;;
50803;SDS011;37205;51.434;6.756;2023-12-20T08:41:38;21.58;;;6.63;;
50803;SDS011;37205;51.434;6.756;2023-12-20T08:44:03;18.40;;;5.28;;
50803;SDS011;37205;51.434;6.756;2023-12-20T08:46:29;19.83;;;5.82;;
50803;SDS011;37205;51.434;6.756;2023-12-20T08:48:55;19.33;;;5.95;;
50803;SDS011;37205;51.434;6.756;2023-12-20T08:51:21;15.73;;;5.20;;
50803;SDS011;37205;51.434;6.756;2023-12-20T08:53:48;21.25;;;6.30;;
50803;SDS011;37205;51.434;6.756;2023-12-20T08:56:14;16.02;;;5.55;;
50803;SDS011;37205;51.434;6.756;2023-12-20T08:58:40;20.98;;;5.93;;
50803;SDS011;37205;51.434;6.756;2023-12-20T09:01:05;15.25;;;5.25;;
50803;SDS011;37205;51.434;6.756;2023-12-20T09:03:32;19.00;;;4.90;;
50803;SDS011;37205;51.434;6.756;2023-12-20T09:05:57;23.38;;;5.78;;
50803;SDS011;37205;51.434;6.756;2023-12-20T09:08:23;20.27;;;5.55;;
50803;SDS011;37205;51.434;6.756;2023-12-20T09:10:49;22.13;;;6.18;;
50803;SDS011;37205;51.434;6.756;2023-12-20T09:13:14;20.88;;;5.70;;
50803;SDS011;37205;51.434;6.756;2023-12-20T09:15:39;21.92;;;5.65;;
50803;SDS011;37205;51.434;6.756;2023-12-20T09:18:05;18.42;;;5.40;;
50803;SDS011;37205;51.434;6.756;2023-12-20T09:20:31;16.77;;;5.75;;
50803;SDS011;37205;51.434;6.756;2023-12-20T09:22:56;17.08;;;5.85;;
50803;SDS011;37205;51.434;6.756;2023-12-20T09:25:22;22.70;;;6.22;;
50803;SDS011;37205;51.434;6.756;2023-12-20T09:27:48;22.75;;;5.57;;
50803;SDS011;37205;51.434;6.756;2023-12-20T09:30:13;15.95;;;5.20;;
50803;SDS011;37205;51.434;6.756;2023-12-20T09:32:39;17.70;;;5.03;;
50803;SDS011;37205;51.434;6.756;2023-12-20T09:35:05;17.23;;;5.72;;
50803;SDS011;37205;51.434;6.756;2023-12-20T09:37:31;22.85;;;5.90;;
50803;SDS011;37205;51.434;6.756;2023-12-20T09:39:57;18.50;;;5.75;;
50803;SDS011;37205;51.434;6.756;2023-12-20T09:42:42;21.75;;;5.13;;
50803;SDS011;37205;51.434;6.756;2023-12-20T09:45:19;17.63;;;4.75;;
50803;SDS011;37205;51.434;6.756;2023-12-20T09:47:46;18.63;;;5.53;;
50803;SDS011;37205;51.434;6.756;2023-12-20T09:50:13;21.27;;;5.85;;
50803;SDS011;37205;51.434;6.756;2023-12-20T09:52:39;21.10;;;5.60;;
50803;SDS011;37205;51.434;6.756;2023-12-20T09:55:07;24.33;;;5.75;;
50803;SDS011;37205;51.434;6.756;2023-12-20T09:57:33;17.02;;;5.32;;
50803;SDS011;37205;51.434;6.756;2023-12-20T09:59:58;17.23;;;5.30;;
50803;SDS011;37205;51.434;6.756;2023-12-20T10:02:25;22.42;;;4.90;;
50803;SDS011;37205;51.434;6.756;2023-12-20T10:04:54;19.67;;;5.20;;
50803;SDS011;37205;51.434;6.756;2023-12-20T10:07:20;19.92;;;5.40;;
50803;SDS011;37205;51.434;6.756;2023-12-20T10:09:47;20.20;;;5.22;;
50803;SDS011;37205;51.434;6.756;2023-12-20T10:12:13;16.58;;;4.93;;
50803;SDS011;37205;51.434;6.756;2023-12-20T10:14:38;19.38;;;5.07;;
50803;SDS011;37205;51.434;6.756;2023-12-20T10:17:05;20.80;;;5.55;;
50803;SDS011;37205;51.434;6.756;2023-12-20T10:19:31;17.15;;;5.25;;
50803;SDS011;37205;51.434;6.756;2023-12-20T10:22:00;16.02;;;4.68;;
50803;SDS011;37205;51.434;6.756;2023-12-20T10:24:29;26.98;;;6.80;;
50803;SDS011;37205;51.434;6.756;2023-12-20T10:27:04;16.52;;;5.00;;
50803;SDS011;37205;51.434;6.756;2023-12-20T10:29:33;19.73;;;5.40;;
50803;SDS011;37205;51.434;6.756;2023-12-20T10:32:00;25.35;;;6.88;;
50803;SDS011;37205;51.434;6.756;2023-12-20T10:34:53;22.75;;;5.70;;
50803;SDS011;37205;51.434;6.756;2023-12-20T10:37:19;24.30;;;6.10;;
50803;SDS011;37205;51.434;6.756;2023-12-20T10:39:51;19.63;;;5.53;;
50803;SDS011;37205;51.434;6.756;2023-12-20T10:42:21;22.73;;;5.90;;
50803;SDS011;37205;51.434;6.756;2023-12-20T10:44:48;21.13;;;5.53;;
50803;SDS011;37205;51.434;6.756;2023-12-20T10:47:14;19.20;;;5.30;;
50803;SDS011;37205;51.434;6.756;2023-12-20T10:49:41;22.70;;;6.25;;
50803;SDS011;37205;51.434;6.756;2023-12-20T10:52:07;18.70;;;5.78;;
50803;SDS011;37205;51.434;6.756;2023-12-20T10:54:34;17.85;;;5.45;;
50803;SDS011;37205;51.434;6.756;2023-12-20T10:56:59;16.95;;;5.18;;
50803;SDS011;37205;51.434;6.756;2023-12-20T10:59:27;17.33;;;5.30;;
50803;SDS011;37205;51.434;6.756;2023-12-20T11:01:57;18.80;;;5.53;;
50803;SDS011;37205;51.434;6.756;2023-12-20T11:04:36;16.75;;;5.78;;
50803;SDS011;37205;51.434;6.756;2023-12-20T11:07:25;23.00;;;5.97;;
50803;SDS011;37205;51.434;6.756;2023-12-20T11:09:59;21.02;;;5.85;;
50803;SDS011;37205;51.434;6.756;2023-12-20T11:12:39;15.40;;;5.45;;
50803;SDS011;37205;51.434;6.756;2023-12-20T11:15:22;16.55;;;5.75;;
50803;SDS011;37205;51.434;6.756;2023-12-20T11:17:56;15.75;;;5.45;;
50803;SDS011;37205;51.434;6.756;2023-12-20T11:20:24;18.10;;;5.55;;
50803;SDS011;37205;51.434;6.756;2023-12-20T11:23:04;14.32;;;5.00;;
50803;SDS011;37205;51.434;6.756;2023-12-20T11:25:33;17.80;;;5.97;;
50803;SDS011;37205;51.434;6.756;2023-12-20T11:28:16;23.13;;;5.97;;
50803;SDS011;37205;51.434;6.756;2023-12-20T11:33:13;17.52;;;5.95;;
50803;SDS011;37205;51.434;6.756;2023-12-20T11:35:39;15.07;;;6.05;;
50803;SDS011;37205;51.434;6.756;2023-12-20T11:38:07;17.25;;;5.88;;
50803;SDS011;37205;51.434;6.756;2023-12-20T11:40:34;20.58;;;6.03;;
50803;SDS011;37205;51.434;6.756;2023-12-20T11:43:00;20.98;;;5.93;;
50803;SDS011;37205;51.434;6.756;2023-12-20T11:45:26;22.85;;;7.18;;
50803;SDS011;37205;51.434;6.756;2023-12-20T11:47:52;15.95;;;6.20;;
50803;SDS011;37205;51.434;6.756;2023-12-20T11:50:22;18.77;;;6.80;;
50803;SDS011;37205;51.434;6.756;2023-12-20T11:52:48;17.88;;;6.03;;
50803;SDS011;37205;51.434;6.756;2023-12-20T11:55:15;14.32;;;6.05;;
50803;SDS011;37205;51.434;6.756;2023-12-20T11:57:41;25.90;;;6.10;;
50803;SDS011;37205;51.434;6.756;2023-12-20T12:00:07;15.18;;;6.32;;
50803;SDS011;37205;51.434;6.756;2023-12-20T12:02:33;19.73;;;5.82;;
50803;SDS011;37205;51.434;6.756;2023-12-20T12:04:59;19.08;;;6.88;;
50803;SDS011;37205;51.434;6.756;2023-12-20T12:07:25;18.20;;;7.20;;
50803;SDS011;37205;51.434;6.756;2023-12-20T12:09:51;18.33;;;6.07;;
50803;SDS011;37205;51.434;6.756;2023-12-20T12:12:17;23.52;;;6.72;;
50803;SDS011;37205;51.434;6.756;2023-12-20T12:14:44;16.50;;;5.97;;
50803;SDS011;37205;51.434;6.756;2023-12-20T12:17:10;19.48;;;6.00;;
50803;SDS011;37205;51.434;6.756;2023-12-20T12:19:37;17.27;;;5.82;;
50803;SDS011;37205;51.434;6.756;2023-12-20T12:22:06;18.02;;;6.20;;
50803;SDS011;37205;51.434;6.756;2023-12-20T12:24:35;14.32;;;5.15;;
50803;SDS011;37205;51.434;6.756;2023-12-20T12:27:01;18.77;;;6.32;;
50803;SDS011;37205;51.434;6.756;2023-12-20T12:29:27;20.17;;;5.97;;
50803;SDS011;37205;51.434;6.756;2023-12-20T12:31:53;14.60;;;6.07;;
50803;SDS011;37205;51.434;6.756;2023-12-20T12:34:18;21.95;;;6.75;;
50803;SDS011;37205;51.434;6.756;2023-12-20T12:36:44;19.67;;;5.25;;
50803;SDS011;37205;51.434;6.756;2023-12-20T12:39:13;20.70;;;7.63;;
50803;SDS011;37205;51.434;6.756;2023-12-20T12:41:42;15.27;;;5.95;;
50803;SDS011;37205;51.434;6.756;2023-12-20T12:44:07;17.70;;;6.13;;
50803;SDS011;37205;51.434;6.756;2023-12-20T12:46:33;18.05;;;5.93;;
50803;SDS011;37205;51.434;6.756;2023-12-20T12:48:59;21.33;;;6.07;;
50803;SDS011;37205;51.434;6.756;2023-12-20T12:51:25;18.83;;;6.15;;
50803;SDS011;37205;51.434;6.756;2023-12-20T12:53:50;16.85;;;6.03;;
50803;SDS011;37205;51.434;6.756;2023-12-20T12:56:16;23.90;;;7.38;;
50803;SDS011;37205;51.434;6.756;2023-12-20T12:58:42;20.75;;;6.45;;
50803;SDS011;37205;51.434;6.756;2023-12-20T13:01:08;14.80;;;6.25;;
50803;SDS011;37205;51.434;6.756;2023-12-20T13:03:33;18.42;;;6.40;;
50803;SDS011;37205;51.434;6.756;2023-12-20T13:05:59;20.38;;;6.75;;
50803;SDS011;37205;51.434;6.756;2023-12-20T13:08:25;18.27;;;7.13;;
50803;SDS011;37205;51.434;6.756;2023-12-20T13:10:51;22.50;;;7.50;;
50803;SDS011;37205;51.434;6.756;2023-12-20T13:13:16;18.27;;;7.18;;
50803;SDS011;37205;51.434;6.756;2023-12-20T13:15:42;19.15;;;6.78;;
50803;SDS011;37205;51.434;6.756;2023-12-20T13:18:13;18.80;;;8.40;;
50803;SDS011;37205;51.434;6.756;2023-12-20T13:20:38;23.75;;;8.13;;
50803;SDS011;37205;51.434;6.756;2023-12-20T13:23:05;24.05;;;8.95;;
50803;SDS011;37205;51.434;6.756;2023-12-20T13:25:30;21.90;;;7.95;;
50803;SDS011;37205;51.434;6.756;2023-12-20T13:27:56;19.80;;;8.80;;
50803;SDS011;37205;51.434;6.756;2023-12-20T13:30:21;19.63;;;8.93;;
50803;SDS011;37205;51.434;6.756;2023-12-20T13:32:47;24.90;;;8.88;;
50803;SDS011;37205;51.434;6.756;2023-12-20T13:35:14;24.92;;;9.48;;
50803;SDS011;37205;51.434;6.756;2023-12-20T13:37:39;22.75;;;9.15;;
50803;SDS011;37205;51.434;6.756;2023-12-20T13:40:05;21.45;;;9.10;;
50803;SDS011;37205;51.434;6.756;2023-12-20T13:42:31;21.63;;;8.05;;
50803;SDS011;37205;51.434;6.756;2023-12-20T13:44:56;18.05;;;8.35;;
50803;SDS011;37205;51.434;6.756;2023-12-20T13:47:22;22.50;;;9.02;;
50803;SDS011;37205;51.434;6.756;2023-12-20T13:49:47;21.52;;;9.13;;
50803;SDS011;37205;51.434;6.756;2023-12-20T13:52:14;19.45;;;9.65;;
50803;SDS011;37205;51.434;6.756;2023-12-20T13:54:39;23.30;;;9.75;;
50803;SDS011;37205;51.434;6.756;2023-12-20T13:57:05;20.02;;;9.80;;
50803;SDS011;37205;51.434;6.756;2023-12-20T13:59:30;20.15;;;9.68;;
50803;SDS011;37205;51.434;6.756;2023-12-20T14:01:56;17.42;;;9.35;;
50803;SDS011;37205;51.434;6.756;2023-12-20T14:04:22;21.98;;;9.98;;
50803;SDS011;37205;51.434;6.756;2023-12-20T14:06:47;21.85;;;10.18;;
50803;SDS011;37205;51.434;6.756;2023-12-20T14:09:13;23.67;;;10.65;;
50803;SDS011;37205;51.434;6.756;2023-12-20T14:11:39;26.30;;;11.38;;
50803;SDS011;37205;51.434;6.756;2023-12-20T14:14:06;23.65;;;10.40;;
50803;SDS011;37205;51.434;6.756;2023-12-20T14:16:32;22.23;;;10.35;;
50803;SDS011;37205;51.434;6.756;2023-12-20T14:19:01;20.40;;;10.70;;
50803;SDS011;37205;51.434;6.756;2023-12-20T14:21:28;28.38;;;10.82;;
50803;SDS011;37205;51.434;6.756;2023-12-20T14:23:53;23.77;;;10.63;;
50803;SDS011;37205;51.434;6.756;2023-12-20T14:26:19;24.30;;;10.60;;
50803;SDS011;37205;51.434;6.756;2023-12-20T14:28:44;23.27;;;10.40;;
50803;SDS011;37205;51.434;6.756;2023-12-20T14:31:10;22.17;;;9.98;;
50803;SDS011;37205;51.434;6.756;2023-12-20T14:33:36;19.02;;;9.40;;
50803;SDS011;37205;51.434;6.756;2023-12-20T14:36:03;25.27;;;10.32;;
50803;SDS011;37205;51.434;6.756;2023-12-20T14:38:30;22.00;;;9.43;;
50803;SDS011;37205;51.434;6.756;2023-12-20T14:40:56;17.88;;;8.90;;
50803;SDS011;37205;51.434;6.756;2023-12-20T14:43:22;23.48;;;8.70;;